Shrewsbury, Pennsylvania
Current Conditions -  °F | °C
As of 1:53 AM on Sunday 26 Oct 2014 (Local Time) from KTHV Reporting Station
Few Clouds Few Clouds  
Wind Chill: 54°   Ceiling: Unl
Heat Index: 54°   Visibility: 10mi
Dew Point: 47°   Wind: 0mph
Humidity: 77%   Direction: NA
Pressure: 29.64"   Gusts: NA
Location:  39.77°N, 76.68°W
Report Text: KTHV 260553Z AUTO 00000KT 10SM FEW075 12/08 A2964 RMK AO2 SLP037 T01220083 10189 20122 56005
Loading
Personal Weather Stations






























Interactive Weather Map
Tropical Storm Tracking
New forecast layout! Learn more

10-Day Weather Forecast

Advertisements
Track Severe Weather on mobile